Time;durP1;ratioP1;P1;durP2;ratioP2;P2;SDS_P1;SDS_P2;PMS_P1;PMS_P2;Temp;Humidity;BMP_temperature;BMP_pressure;BME280_temperature;BME280_humidity;BME280_pressure;Samples;Min_cycle;Max_cycle;Signal;HPM_P1;HPM_P2
2021/06/29 00:00:56;;;;;;;11.50;6.97;;;;;;;;;;1504726;39;20361;-60
2021/06/29 00:02:28;;;;;;;10.95;7.22;;;;;;;;;;1501526;39;20402;-60
2021/06/29 00:04:01;;;;;;;9.65;7.30;;;;;;;;;;1504728;39;20764;-61
2021/06/29 00:05:36;;;;;;;9.88;7.43;;;;;;;;;;1508145;39;20421;-59
2021/06/29 00:07:08;;;;;;;9.55;7.20;;;;;;;;;;1504753;39;20800;-59
2021/06/29 00:08:42;;;;;;;7.82;6.40;;;;;;;;;;1508019;39;20425;-61
2021/06/29 00:10:17;;;;;;;10.05;7.22;;;;;;;;;;1508087;39;20486;-61
2021/06/29 00:12:04;;;;;;;11.02;7.22;;;;;;;;;;1506779;39;20825;-59
2021/06/29 00:13:36;;;;;;;9.52;6.85;;;;;;;;;;1504823;39;20360;-60
2021/06/29 00:15:10;;;;;;;8.07;6.50;;;;;;;;;;1508146;39;20905;-61
2021/06/29 00:16:57;;;;;;;10.80;7.07;;;;;;;;;;1508128;39;20475;-60
2021/06/29 00:18:30;;;;;;;11.20;7.30;;;;;;;;;;1504633;39;20369;-60
2021/06/29 00:20:01;;;;;;;9.27;7.32;;;;;;;;;;1508225;39;20407;-62
2021/06/29 00:21:29;;;;;;;11.23;7.18;;;;;;;;;;1508264;39;20405;-61
2021/06/29 00:23:01;;;;;;;9.63;7.30;;;;;;;;;;1504655;39;20364;-61
2021/06/29 00:24:37;;;;;;;9.10;7.18;;;;;;;;;;1508111;39;20545;-60
2021/06/29 00:26:10;;;;;;;11.73;8.00;;;;;;;;;;1504759;39;20365;-61
2021/06/29 00:27:42;;;;;;;10.52;7.95;;;;;;;;;;1504756;39;20368;-60
2021/06/29 00:29:14;;;;;;;12.40;7.47;;;;;;;;;;1504782;39;20372;-60
2021/06/29 00:30:46;;;;;;;11.25;8.18;;;;;;;;;;1504776;39;20620;-61
2021/06/29 00:32:16;;;;;;;9.18;7.20;;;;;;;;;;1502476;39;20402;-60
2021/06/29 00:33:48;;;;;;;9.93;7.65;;;;;;;;;;1504701;39;20759;-60
2021/06/29 00:35:20;;;;;;;9.52;7.90;;;;;;;;;;1504777;39;20349;-59
2021/06/29 00:37:05;;;;;;;10.75;8.00;;;;;;;;;;1508155;39;20429;-60
2021/06/29 00:38:37;;;;;;;13.40;7.78;;;;;;;;;;1504744;39;20376;-61
2021/06/29 00:40:11;;;;;;;9.52;7.47;;;;;;;;;;1504761;39;20662;-59
2021/06/29 00:41:46;;;;;;;10.57;8.07;;;;;;;;;;1507997;39;20784;-59
2021/06/29 00:43:23;;;;;;;11.27;8.40;;;;;;;;;;1508177;39;20409;-60
2021/06/29 00:44:55;;;;;;;9.95;7.90;;;;;;;;;;1504765;39;20372;-60
2021/06/29 00:46:26;;;;;;;11.00;8.10;;;;;;;;;;1504784;39;20731;-60
2021/06/29 00:47:57;;;;;;;12.13;8.07;;;;;;;;;;1504841;39;20380;-60
2021/06/29 00:49:41;;;;;;;10.32;8.30;;;;;;;;;;1508211;39;20782;-59
2021/06/29 00:51:15;;;;;;;13.38;8.68;;;;;;;;;;1504678;39;20760;-60
2021/06/29 00:52:46;;;;;;;14.25;8.38;;;;;;;;;;1500488;39;20642;-59
2021/06/29 00:54:19;;;;;;;10.13;8.40;;;;;;;;;;1504801;39;20377;-61
2021/06/29 00:56:13;;;;;;;10.32;8.07;;;;;;;;;;1508204;39;20800;-61
2021/06/29 00:57:51;;;;;;;11.15;8.13;;;;;;;;;;1508222;39;20421;-62
2021/06/29 00:59:24;;;;;;;11.32;8.32;;;;;;;;;;1504818;39;20384;-61
2021/06/29 01:00:55;;;;;;;10.70;8.68;;;;;;;;;;1504711;39;20357;-59
2021/06/29 01:02:26;;;;;;;10.23;8.75;;;;;;;;;;1501795;39;20402;-61
2021/06/29 01:04:08;;;;;;;13.10;8.43;;;;;;;;;;1508091;39;20425;-61
2021/06/29 01:05:42;;;;;;;11.73;8.65;;;;;;;;;;1504760;39;20656;-61
2021/06/29 01:07:12;;;;;;;11.57;8.50;;;;;;;;;;1508113;39;20650;-61
2021/06/29 01:08:44;;;;;;;11.65;8.23;;;;;;;;;;1504817;39;20373;-61
2021/06/29 01:10:25;;;;;;;11.52;7.97;;;;;;;;;;1508168;39;20432;-60
2021/06/29 01:11:52;;;;;;;11.52;8.80;;;;;;;;;;1507521;39;20670;-61
2021/06/29 01:13:39;;;;;;;11.75;8.75;;;;;;;;;;1508133;39;20418;-61
2021/06/29 01:15:08;;;;;;;11.30;8.18;;;;;;;;;;1508093;39;20426;-59
2021/06/29 01:16:51;;;;;;;11.07;7.88;;;;;;;;;;1508137;39;20677;-59
2021/06/29 01:18:23;;;;;;;10.18;8.10;;;;;;;;;;1508096;39;20821;-62
2021/06/29 01:20:08;;;;;;;12.77;7.80;;;;;;;;;;1508078;39;20507;-60
2021/06/29 01:21:40;;;;;;;11.35;8.32;;;;;;;;;;1508021;39;20491;-60
2021/06/29 01:23:13;;;;;;;9.50;8.07;;;;;;;;;;1508047;39;20542;-61
2021/06/29 01:24:47;;;;;;;10.05;8.05;;;;;;;;;;1504659;39;20636;-60
2021/06/29 01:26:19;;;;;;;13.35;7.88;;;;;;;;;;1508194;39;20418;-61
2021/06/29 01:28:13;;;;;;;8.95;8.02;;;;;;;;;;1508085;39;20421;-61
2021/06/29 01:30:57;;;;;;;10.88;8.27;;;;;;;;;;1504691;39;20372;-59
2021/06/29 01:31:38;;;;;;;11.23;8.15;;;;;;;;;;1508002;39;20828;-61
2021/06/29 01:33:10;;;;;;;10.70;8.65;;;;;;;;;;1504728;39;20361;-59
2021/06/29 01:34:47;;;;;;;11.63;8.05;;;;;;;;;;1508186;39;20832;-60
2021/06/29 01:36:20;;;;;;;13.25;8.98;;;;;;;;;;1504760;39;20644;-60
2021/06/29 01:37:59;;;;;;;13.18;8.20;;;;;;;;;;1508160;39;20407;-59
2021/06/29 01:39:32;;;;;;;8.85;7.82;;;;;;;;;;1504648;39;20384;-60
2021/06/29 01:41:04;;;;;;;12.77;8.63;;;;;;;;;;1504840;39;20743;-60
2021/06/29 01:42:35;;;;;;;10.07;7.72;;;;;;;;;;1501192;39;20769;-59
2021/06/29 01:44:10;;;;;;;12.20;7.93;;;;;;;;;;1504768;31;20364;-59
2021/06/29 01:45:45;;;;;;;9.82;8.38;;;;;;;;;;1504848;39;20372;-59
2021/06/29 01:47:26;;;;;;;12.25;8.35;;;;;;;;;;1508114;39;20421;-60
2021/06/29 01:48:59;;;;;;;13.95;8.38;;;;;;;;;;1504758;39;20389;-59
2021/06/29 01:50:40;;;;;;;11.35;8.25;;;;;;;;;;1508110;39;20431;-60
2021/06/29 01:52:13;;;;;;;9.15;7.95;;;;;;;;;;1506077;39;20412;-60
2021/06/29 01:53:48;;;;;;;11.20;7.97;;;;;;;;;;1508130;39;20491;-61
2021/06/29 01:55:20;;;;;;;12.75;7.97;;;;;;;;;;1504734;39;20365;-60
2021/06/29 01:56:51;;;;;;;10.43;7.82;;;;;;;;;;1504770;39;20372;-59
2021/06/29 01:58:25;;;;;;;10.73;8.43;;;;;;;;;;1504763;39;20360;-60
2021/06/29 01:59:57;;;;;;;9.90;7.32;;;;;;;;;;1508154;39;20413;-61
2021/06/29 02:01:29;;;;;;;13.23;8.48;;;;;;;;;;1504941;39;20357;-60
2021/06/29 02:03:08;;;;;;;11.80;8.20;;;;;;;;;;1499525;39;20801;-61
2021/06/29 02:04:42;;;;;;;12.32;9.00;;;;;;;;;;1504777;39;20361;-60
2021/06/29 02:06:15;;;;;;;11.82;8.30;;;;;;;;;;1504758;39;20368;-60
2021/06/29 02:07:57;;;;;;;12.57;8.38;;;;;;;;;;1508009;39;20429;-60
2021/06/29 02:09:44;;;;;;;10.40;8.20;;;;;;;;;;1508117;39;20425;-61
2021/06/29 02:11:12;;;;;;;11.88;9.38;;;;;;;;;;1508116;39;20414;-61
2021/06/29 02:12:45;;;;;;;11.82;9.43;;;;;;;;;;1500567;39;20398;-61
2021/06/29 02:14:17;;;;;;;11.75;8.70;;;;;;;;;;1504801;39;20368;-59
2021/06/29 02:15:48;;;;;;;12.35;9.25;;;;;;;;;;1504783;39;20357;-60
2021/06/29 02:17:19;;;;;;;14.32;8.57;;;;;;;;;;1504926;31;20384;-60
2021/06/29 02:18:48;;;;;;;10.70;8.15;;;;;;;;;;1508147;39;20437;-62
2021/06/29 02:20:17;;;;;;;11.80;8.75;;;;;;;;;;1508206;39;20429;-61
2021/06/29 02:21:51;;;;;;;11.48;8.73;;;;;;;;;;1507582;39;20433;-61
2021/06/29 02:23:23;;;;;;;10.57;8.50;;;;;;;;;;1504709;39;20369;-59
2021/06/29 02:24:56;;;;;;;14.52;9.02;;;;;;;;;;1504747;39;20368;-59
2021/06/29 02:26:32;;;;;;;11.13;8.52;;;;;;;;;;1508176;39;20517;-61
2021/06/29 02:28:04;;;;;;;12.52;8.90;;;;;;;;;;1504831;39;20364;-60
2021/06/29 02:29:37;;;;;;;13.00;9.43;;;;;;;;;;1504664;39;20693;-60
2021/06/29 02:31:04;;;;;;;12.48;8.52;;;;;;;;;;1508130;39;20425;-61
2021/06/29 02:32:35;;;;;;;10.27;8.18;;;;;;;;;;1504593;39;20472;-59
2021/06/29 02:34:07;;;;;;;12.85;8.77;;;;;;;;;;1504635;39;20372;-60
2021/06/29 02:35:40;;;;;;;10.07;8.38;;;;;;;;;;1504699;39;20389;-60
2021/06/29 02:37:12;;;;;;;13.25;8.93;;;;;;;;;;1504731;39;20623;-59
2021/06/29 02:38:51;;;;;;;12.23;8.18;;;;;;;;;;1508216;39;20403;-61
2021/06/29 02:40:23;;;;;;;13.55;8.60;;;;;;;;;;1504762;39;20368;-61
2021/06/29 02:41:56;;;;;;;11.15;8.45;;;;;;;;;;1503986;39;20364;-60
2021/06/29 02:43:28;;;;;;;12.05;8.75;;;;;;;;;;1508155;39;20514;-59
2021/06/29 02:45:04;;;;;;;12.00;8.43;;;;;;;;;;1504727;39;20357;-60
2021/06/29 02:46:37;;;;;;;12.18;9.20;;;;;;;;;;1504756;39;20373;-61
2021/06/29 02:48:09;;;;;;;10.10;8.82;;;;;;;;;;1504687;39;20372;-59
2021/06/29 02:49:43;;;;;;;10.55;8.82;;;;;;;;;;1508081;39;20773;-59
2021/06/29 02:51:15;;;;;;;10.85;8.80;;;;;;;;;;1504737;39;20372;-60
2021/06/29 02:52:46;;;;;;;9.82;8.82;;;;;;;;;;1500511;39;20417;-61
2021/06/29 02:54:33;;;;;;;9.38;7.63;;;;;;;;;;1508203;39;20686;-61
2021/06/29 02:56:36;;;;;;;11.43;8.80;;;;;;;;;;1508158;39;20421;-61
2021/06/29 02:58:00;;;;;;;11.73;8.25;;;;;;;;;;1504756;39;20384;-61
2021/06/29 02:59:33;;;;;;;12.32;8.98;;;;;;;;;;1504631;39;20369;-59
2021/06/29 03:01:00;;;;;;;10.88;8.35;;;;;;;;;;1508096;39;20417;-59
2021/06/29 03:02:32;;;;;;;13.32;8.48;;;;;;;;;;1501467;39;20390;-61
2021/06/29 03:04:03;;;;;;;13.00;8.90;;;;;;;;;;1504788;39;20372;-61
2021/06/29 03:05:35;;;;;;;10.27;8.50;;;;;;;;;;1504880;39;20368;-61
2021/06/29 03:07:07;;;;;;;12.77;8.27;;;;;;;;;;1504724;39;20377;-60
2021/06/29 03:08:45;;;;;;;13.63;9.05;;;;;;;;;;1508143;39;20977;-61
2021/06/29 03:10:25;;;;;;;10.52;8.50;;;;;;;;;;1508034;39;20843;-61
2021/06/29 03:11:57;;;;;;;12.77;8.40;;;;;;;;;;1503863;39;20388;-60
2021/06/29 03:13:30;;;;;;;12.57;8.32;;;;;;;;;;1504734;39;20364;-61
2021/06/29 03:15:02;;;;;;;10.57;8.38;;;;;;;;;;1504670;39;20372;-60
2021/06/29 03:16:42;;;;;;;14.57;8.18;;;;;;;;;;1508154;39;20431;-61
2021/06/29 03:18:14;;;;;;;9.32;8.18;;;;;;;;;;1504680;39;20788;-61
2021/06/29 03:19:46;;;;;;;11.82;8.40;;;;;;;;;;1504737;39;20368;-60
2021/06/29 03:21:18;;;;;;;10.25;7.72;;;;;;;;;;1504694;39;20381;-60
2021/06/29 03:22:55;;;;;;;10.68;8.45;;;;;;;;;;1508190;39;20413;-60
2021/06/29 03:24:28;;;;;;;9.93;8.18;;;;;;;;;;1504825;39;20756;-60
2021/06/29 03:26:00;;;;;;;14.50;9.48;;;;;;;;;;1504748;39;20755;-60
2021/06/29 03:27:33;;;;;;;10.55;8.20;;;;;;;;;;1504825;39;20360;-61
2021/06/29 03:29:00;;;;;;;8.60;7.63;;;;;;;;;;1508100;39;20418;-61
2021/06/29 03:30:32;;;;;;;13.90;8.65;;;;;;;;;;1504752;39;20364;-61
2021/06/29 03:32:06;;;;;;;11.77;8.98;;;;;;;;;;1503446;39;20376;-60
2021/06/29 03:33:39;;;;;;;10.48;8.07;;;;;;;;;;1508107;39;20548;-60
2021/06/29 03:35:12;;;;;;;11.93;8.18;;;;;;;;;;1504649;39;20369;-59
2021/06/29 03:36:43;;;;;;;11.10;8.32;;;;;;;;;;1504757;39;20365;-59
2021/06/29 03:38:14;;;;;;;9.30;7.43;;;;;;;;;;1504763;39;20616;-61
2021/06/29 03:39:46;;;;;;;12.75;8.43;;;;;;;;;;1504873;39;20369;-60
2021/06/29 03:41:17;;;;;;;12.35;8.50;;;;;;;;;;1504702;39;20878;-61
2021/06/29 03:42:48;;;;;;;9.90;8.05;;;;;;;;;;1508248;39;20435;-59
2021/06/29 03:44:20;;;;;;;11.02;8.30;;;;;;;;;;1504795;39;20356;-59
2021/06/29 03:45:51;;;;;;;11.18;8.85;;;;;;;;;;1504661;39;20372;-60
2021/06/29 03:47:22;;;;;;;12.25;8.90;;;;;;;;;;1504830;39;20364;-60
2021/06/29 03:48:53;;;;;;;10.48;8.70;;;;;;;;;;1504731;39;20384;-60
2021/06/29 03:50:27;;;;;;;11.10;8.57;;;;;;;;;;1508136;39;20498;-60
2021/06/29 03:51:58;;;;;;;11.95;8.48;;;;;;;;;;1507209;39;20421;-59
2021/06/29 03:53:29;;;;;;;12.35;8.90;;;;;;;;;;1504809;39;20748;-60
2021/06/29 03:55:00;;;;;;;11.40;8.18;;;;;;;;;;1504873;39;20368;-59
2021/06/29 03:56:32;;;;;;;12.60;9.00;;;;;;;;;;1504869;31;20365;-61
2021/06/29 03:58:04;;;;;;;10.73;8.65;;;;;;;;;;1504732;39;20361;-60
2021/06/29 03:59:37;;;;;;;10.90;8.15;;;;;;;;;;1504745;39;20360;-60
2021/06/29 04:01:16;;;;;;;9.52;8.05;;;;;;;;;;1508158;39;20681;-59
2021/06/29 04:02:57;;;;;;;10.85;7.85;;;;;;;;;;1508186;39;20885;-60
2021/06/29 04:04:28;;;;;;;10.63;7.85;;;;;;;;;;1508180;39;20493;-60
2021/06/29 04:06:00;;;;;;;10.57;7.82;;;;;;;;;;1504949;31;20384;-60
2021/06/29 04:07:39;;;;;;;9.48;7.47;;;;;;;;;;1508169;39;20533;-59
2021/06/29 04:09:14;;;;;;;11.18;8.05;;;;;;;;;;1508207;39;20428;-61
2021/06/29 04:10:57;;;;;;;12.00;8.57;;;;;;;;;;1508173;39;20503;-61
2021/06/29 04:12:27;;;;;;;10.45;8.10;;;;;;;;;;1505279;39;20416;-59
2021/06/29 04:14:01;;;;;;;9.25;7.80;;;;;;;;;;1508033;39;20832;-60
2021/06/29 04:15:41;;;;;;;12.95;7.90;;;;;;;;;;1508153;39;20498;-61
2021/06/29 04:17:14;;;;;;;9.82;7.82;;;;;;;;;;1504754;39;20755;-59
2021/06/29 04:18:47;;;;;;;12.10;8.40;;;;;;;;;;1504836;31;20372;-60
2021/06/29 04:20:24;;;;;;;11.27;8.35;;;;;;;;;;1508130;39;20405;-60
2021/06/29 04:21:55;;;;;;;11.63;8.38;;;;;;;;;;1507513;39;20491;-59
2021/06/29 04:23:27;;;;;;;9.27;8.00;;;;;;;;;;1504693;39;20773;-60
2021/06/29 04:25:11;;;;;;;11.77;8.00;;;;;;;;;;1508200;39;20533;-61
2021/06/29 04:26:44;;;;;;;10.63;8.38;;;;;;;;;;1505033;39;20381;-60
2021/06/29 04:28:13;;;;;;;12.60;7.97;;;;;;;;;;1508041;39;20410;-60
2021/06/29 04:29:56;;;;;;;11.30;7.60;;;;;;;;;;1508182;39;20517;-59
2021/06/29 04:31:28;;;;;;;11.02;7.65;;;;;;;;;;1504722;39;20693;-59
2021/06/29 04:33:00;;;;;;;12.18;8.38;;;;;;;;;;1504776;39;20748;-59
2021/06/29 04:34:32;;;;;;;12.15;8.90;;;;;;;;;;1504667;39;20385;-59
2021/06/29 04:36:05;;;;;;;9.98;7.65;;;;;;;;;;1504802;39;20376;-59
2021/06/29 04:37:37;;;;;;;10.93;7.47;;;;;;;;;;1504675;39;20364;-60
2021/06/29 04:39:16;;;;;;;11.93;8.30;;;;;;;;;;1508033;39;20478;-59
2021/06/29 04:40:49;;;;;;;9.32;7.57;;;;;;;;;;1504670;39;20380;-59
2021/06/29 04:42:29;;;;;;;12.02;7.82;;;;;;;;;;1505124;39;20415;-59
2021/06/29 04:44:02;;;;;;;10.98;7.68;;;;;;;;;;1504750;39;20373;-60
2021/06/29 04:45:34;;;;;;;9.77;7.50;;;;;;;;;;1504825;39;20364;-59
2021/06/29 04:47:06;;;;;;;11.13;7.35;;;;;;;;;;1504845;39;20365;-60
2021/06/29 04:48:46;;;;;;;11.60;7.85;;;;;;;;;;1508147;39;20502;-61
2021/06/29 04:50:33;;;;;;;9.18;7.35;;;;;;;;;;1508160;39;20651;-60
2021/06/29 04:52:18;;;;;;;9.05;7.18;;;;;;;;;;1505766;39;20516;-60
2021/06/29 04:53:56;;;;;;;11.20;7.55;;;;;;;;;;1508173;39;20410;-61
2021/06/29 04:55:32;;;;;;;9.88;7.45;;;;;;;;;;1504735;39;20788;-61
2021/06/29 04:57:05;;;;;;;8.60;7.20;;;;;;;;;;1504612;39;20396;-61
2021/06/29 04:58:36;;;;;;;9.90;6.68;;;;;;;;;;1504759;39;20652;-59
2021/06/29 05:00:19;;;;;;;10.70;7.00;;;;;;;;;;1508162;39;20414;-61
2021/06/29 05:01:50;;;;;;;9.00;6.55;;;;;;;;;;1504350;39;20381;-62
2021/06/29 05:03:21;;;;;;;10.55;6.93;;;;;;;;;;1504660;39;20627;-60
2021/06/29 05:04:54;;;;;;;10.73;6.43;;;;;;;;;;1504655;39;20763;-62
2021/06/29 05:06:25;;;;;;;8.30;6.05;;;;;;;;;;1508243;39;20493;-61
2021/06/29 05:07:57;;;;;;;7.60;6.32;;;;;;;;;;1504747;39;20364;-61
2021/06/29 05:09:28;;;;;;;8.45;5.88;;;;;;;;;;1504754;39;20384;-60
2021/06/29 05:11:01;;;;;;;6.95;6.10;;;;;;;;;;1504787;39;20361;-60
2021/06/29 05:12:33;;;;;;;8.45;6.35;;;;;;;;;;1501367;39;20406;-61
2021/06/29 05:14:04;;;;;;;8.88;6.55;;;;;;;;;;1504779;39;20620;-61
2021/06/29 05:15:35;;;;;;;7.55;6.10;;;;;;;;;;1504791;39;20364;-61
2021/06/29 05:17:12;;;;;;;8.43;5.95;;;;;;;;;;1508116;39;20437;-61
2021/06/29 05:18:44;;;;;;;9.63;6.00;;;;;;;;;;1504739;39;20372;-62
2021/06/29 05:20:17;;;;;;;10.20;6.80;;;;;;;;;;1504793;39;20752;-61
2021/06/29 05:21:49;;;;;;;8.30;6.40;;;;;;;;;;1504604;39;20373;-61
2021/06/29 05:23:25;;;;;;;7.85;6.47;;;;;;;;;;1507985;39;20503;-60
2021/06/29 05:25:08;;;;;;;9.60;6.22;;;;;;;;;;1508139;39;20510;-61
2021/06/29 05:26:40;;;;;;;9.85;6.20;;;;;;;;;;1504726;39;20403;-60
2021/06/29 05:28:11;;;;;;;7.90;6.10;;;;;;;;;;1504854;39;20365;-61
2021/06/29 05:29:41;;;;;;;7.72;6.70;;;;;;;;;;1504869;39;20364;-60
2021/06/29 05:31:12;;;;;;;8.63;6.20;;;;;;;;;;1508163;39;20405;-61
2021/06/29 05:32:43;;;;;;;8.98;6.88;;;;;;;;;;1500605;39;20395;-61
2021/06/29 05:34:11;;;;;;;9.60;6.93;;;;;;;;;;1508077;39;20472;-61
2021/06/29 05:35:43;;;;;;;8.38;6.30;;;;;;;;;;1504812;39;20349;-60
2021/06/29 05:37:15;;;;;;;8.38;6.43;;;;;;;;;;1504748;39;20780;-59
2021/06/29 05:38:57;;;;;;;9.10;6.55;;;;;;;;;;1508183;39;20425;-61
2021/06/29 05:40:27;;;;;;;8.50;6.90;;;;;;;;;;1508136;39;20658;-61
2021/06/29 05:41:59;;;;;;;9.30;6.53;;;;;;;;;;1503817;39;20760;-60
2021/06/29 05:43:32;;;;;;;10.25;6.80;;;;;;;;;;1504721;39;20636;-59
2021/06/29 05:45:04;;;;;;;7.57;5.90;;;;;;;;;;1504779;39;20356;-61
2021/06/29 05:46:32;;;;;;;11.18;6.30;;;;;;;;;;1508177;39;20418;-61
2021/06/29 05:48:04;;;;;;;6.93;6.22;;;;;;;;;;1504881;39;20352;-61
2021/06/29 05:49:35;;;;;;;7.82;5.97;;;;;;;;;;1508110;39;20782;-61
2021/06/29 05:51:19;;;;;;;8.30;5.82;;;;;;;;;;1508079;39;20491;-61
2021/06/29 05:52:50;;;;;;;9.57;5.63;;;;;;;;;;1503867;39;20410;-60
2021/06/29 05:54:30;;;;;;;11.07;6.30;;;;;;;;;;1508178;39;20495;-61
2021/06/29 05:56:12;;;;;;;7.80;5.85;;;;;;;;;;1508022;39;20426;-60
2021/06/29 05:57:44;;;;;;;8.13;5.78;;;;;;;;;;1504804;39;20748;-60
2021/06/29 05:59:27;;;;;;;9.75;6.05;;;;;;;;;;1508221;39;20495;-61
2021/06/29 06:01:01;;;;;;;6.95;5.60;;;;;;;;;;1508149;39;20416;-61
2021/06/29 06:02:33;;;;;;;10.82;5.75;;;;;;;;;;1501386;39;20789;-60
2021/06/29 06:04:05;;;;;;;6.70;5.63;;;;;;;;;;1504748;39;20365;-62
2021/06/29 06:05:37;;;;;;;7.60;6.10;;;;;;;;;;1504795;39;20364;-61
2021/06/29 06:07:08;;;;;;;8.05;6.20;;;;;;;;;;1504720;39;20747;-60
2021/06/29 06:08:51;;;;;;;8.10;6.55;;;;;;;;;;1508238;39;20808;-62
2021/06/29 06:10:23;;;;;;;8.38;6.20;;;;;;;;;;1504748;39;20767;-61
2021/06/29 06:11:56;;;;;;;7.35;6.22;;;;;;;;;;1504091;39;20615;-60
2021/06/29 06:13:28;;;;;;;8.65;6.70;;;;;;;;;;1504804;39;20372;-61
2021/06/29 06:14:59;;;;;;;9.68;6.10;;;;;;;;;;1504850;39;20380;-62
2021/06/29 06:16:45;;;;;;;9.82;6.72;;;;;;;;;;1508163;39;20413;-62
2021/06/29 06:18:17;;;;;;;8.75;6.00;;;;;;;;;;1504795;39;20368;-61
2021/06/29 06:19:50;;;;;;;11.43;6.97;;;;;;;;;;1504808;39;20736;-60
2021/06/29 06:21:23;;;;;;;10.75;6.75;;;;;;;;;;1508155;39;20502;-60
2021/06/29 06:22:55;;;;;;;10.38;6.20;;;;;;;;;;1500513;39;20359;-61
2021/06/29 06:24:28;;;;;;;7.70;6.05;;;;;;;;;;1504733;39;20361;-62
2021/06/29 06:26:01;;;;;;;9.73;6.40;;;;;;;;;;1508213;39;20423;-61
2021/06/29 06:27:33;;;;;;;9.95;6.10;;;;;;;;;;1504968;31;20376;-60
2021/06/29 06:29:20;;;;;;;9.50;6.45;;;;;;;;;;1508150;39;20495;-61
2021/06/29 06:30:52;;;;;;;8.27;6.55;;;;;;;;;;1504782;39;20647;-62
2021/06/29 06:32:32;;;;;;;12.52;7.47;;;;;;;;;;1504896;39;20419;-61
2021/06/29 06:34:12;;;;;;;9.20;6.70;;;;;;;;;;1508138;39;20762;-62
2021/06/29 06:35:44;;;;;;;8.18;6.13;;;;;;;;;;1504856;39;20647;-60
2021/06/29 06:37:21;;;;;;;10.38;6.63;;;;;;;;;;1508185;39;20479;-61
2021/06/29 06:38:53;;;;;;;8.32;6.50;;;;;;;;;;1504768;39;20368;-61
2021/06/29 06:40:26;;;;;;;7.95;6.32;;;;;;;;;;1504760;39;20349;-59
2021/06/29 06:41:58;;;;;;;7.05;5.65;;;;;;;;;;1503884;39;20376;-61
2021/06/29 06:43:41;;;;;;;7.95;6.50;;;;;;;;;;1508148;39;20410;-60
2021/06/29 06:45:14;;;;;;;7.57;5.90;;;;;;;;;;1504842;39;20639;-60
2021/06/29 06:46:57;;;;;;;8.90;6.25;;;;;;;;;;1508066;39;20421;-60
2021/06/29 06:48:29;;;;;;;7.60;6.15;;;;;;;;;;1504850;39;20364;-62
2021/06/29 06:50:01;;;;;;;9.48;6.80;;;;;;;;;;1504753;39;20651;-61
2021/06/29 06:51:44;;;;;;;8.30;6.43;;;;;;;;;;1508169;39;20416;-61
2021/06/29 06:53:17;;;;;;;7.55;6.72;;;;;;;;;;1504773;39;20361;-61
2021/06/29 06:54:59;;;;;;;8.00;6.63;;;;;;;;;;1508169;39;20410;-62
2021/06/29 06:56:31;;;;;;;9.85;6.82;;;;;;;;;;1504789;39;20741;-61
2021/06/29 06:58:03;;;;;;;9.55;6.25;;;;;;;;;;1504819;39;20619;-60
2021/06/29 06:59:35;;;;;;;11.55;6.82;;;;;;;;;;1504739;39;20380;-60
2021/06/29 07:01:06;;;;;;;8.95;6.50;;;;;;;;;;1504733;39;20392;-60
2021/06/29 07:02:39;;;;;;;9.60;6.65;;;;;;;;;;1501134;39;20701;-61
2021/06/29 07:04:21;;;;;;;9.23;6.25;;;;;;;;;;1508159;39;20524;-62
2021/06/29 07:06:07;;;;;;;7.15;5.88;;;;;;;;;;1508147;39;20820;-61
2021/06/29 07:07:08;;;;;;;8.70;6.85;;;;;;;;;;1503958;39;20030;-61
2021/06/29 07:08:41;;;;;;;10.93;6.55;;;;;;;;;;1509187;39;20362;-62
2021/06/29 07:10:24;;;;;;;9.45;6.40;;;;;;;;;;1508142;39;20685;-61
2021/06/29 07:12:10;;;;;;;9.07;6.32;;;;;;;;;;1506532;39;20415;-61
2021/06/29 07:13:41;;;;;;;9.00;6.25;;;;;;;;;;1508161;39;20429;-61
2021/06/29 07:15:12;;;;;;;9.63;5.47;;;;;;;;;;1508096;39;20881;-62
2021/06/29 07:16:44;;;;;;;8.07;6.25;;;;;;;;;;1504847;39;20360;-62
2021/06/29 07:18:26;;;;;;;6.97;5.82;;;;;;;;;;1508161;39;20690;-62
2021/06/29 07:19:45;;;;;;;8.07;5.95;;;;;;;;;;1504811;39;20369;-62
2021/06/29 07:21:00;;;;;;;9.15;6.25;;;;;;;;;;1500453;39;20401;-62
2021/06/29 07:22:14;;;;;;;8.63;6.35;;;;;;;;;;1500525;39;20397;-60
2021/06/29 07:23:29;;;;;;;8.63;5.22;;;;;;;;;;1496188;39;20383;-60
2021/06/29 07:24:44;;;;;;;7.70;4.90;;;;;;;;;;1500578;39;20398;-62
2021/06/29 07:25:59;;;;;;;9.65;5.50;;;;;;;;;;1509100;39;20386;-60
2021/06/29 07:27:14;;;;;;;9.13;5.45;;;;;;;;;;1500620;39;20412;-62
2021/06/29 07:28:29;;;;;;;7.57;4.75;;;;;;;;;;1509099;39;20379;-62
2021/06/29 07:29:44;;;;;;;7.38;5.20;;;;;;;;;;1509084;39;20387;-61
2021/06/29 07:31:00;;;;;;;7.18;5.35;;;;;;;;;;1509160;39;20390;-61
2021/06/29 07:32:15;;;;;;;6.85;5.03;;;;;;;;;;1509043;39;20399;-62
2021/06/29 07:33:29;;;;;;;5.70;4.85;;;;;;;;;;1500621;39;20385;-62
2021/06/29 07:34:45;;;;;;;7.35;4.85;;;;;;;;;;1500529;39;20409;-62
2021/06/29 07:35:59;;;;;;;5.47;4.75;;;;;;;;;;1500556;39;20381;-62
2021/06/29 07:37:14;;;;;;;6.45;4.97;;;;;;;;;;1509140;39;20394;-62
2021/06/29 07:38:30;;;;;;;8.48;5.22;;;;;;;;;;1496266;39;20386;-60
2021/06/29 07:39:44;;;;;;;6.03;5.00;;;;;;;;;;1509203;39;20389;-61
2021/06/29 07:40:59;;;;;;;5.95;5.13;;;;;;;;;;1500613;39;20385;-62
2021/06/29 07:42:15;;;;;;;7.28;4.75;;;;;;;;;;1500544;31;20638;-61
2021/06/29 07:43:30;;;;;;;6.18;4.63;;;;;;;;;;1492106;39;20384;-62
2021/06/29 07:44:45;;;;;;;6.35;4.55;;;;;;;;;;1509101;39;20438;-62
2021/06/29 07:46:00;;;;;;;7.95;5.30;;;;;;;;;;1492061;39;20385;-62
2021/06/29 07:47:14;;;;;;;5.93;4.85;;;;;;;;;;1496426;39;20386;-62
2021/06/29 07:48:30;;;;;;;6.22;4.78;;;;;;;;;;1496293;39;20376;-62
2021/06/29 07:49:45;;;;;;;7.95;4.90;;;;;;;;;;1500535;39;20765;-62
2021/06/29 07:51:00;;;;;;;5.50;4.07;;;;;;;;;;1509098;39;20379;-62
2021/06/29 07:52:15;;;;;;;5.00;4.30;;;;;;;;;;1500430;39;20398;-60
2021/06/29 07:53:30;;;;;;;5.95;3.83;;;;;;;;;;1500441;39;20389;-60
2021/06/29 07:54:45;;;;;;;6.47;4.30;;;;;;;;;;1500478;39;20402;-61
2021/06/29 07:56:00;;;;;;;6.00;4.55;;;;;;;;;;1500425;39;20378;-61
2021/06/29 07:57:15;;;;;;;6.22;4.60;;;;;;;;;;1509251;39;20401;-61
2021/06/29 07:58:30;;;;;;;10.15;5.05;;;;;;;;;;1496236;39;20383;-60
2021/06/29 07:59:45;;;;;;;6.80;4.57;;;;;;;;;;1496295;39;20778;-61
2021/06/29 08:01:00;;;;;;;5.97;4.80;;;;;;;;;;1500670;39;20377;-62
2021/06/29 08:02:15;;;;;;;5.75;4.70;;;;;;;;;;1496278;39;20385;-61
2021/06/29 08:03:30;;;;;;;5.88;4.38;;;;;;;;;;1500693;31;20374;-60
2021/06/29 08:04:45;;;;;;;6.50;4.28;;;;;;;;;;1509121;39;20386;-62
2021/06/29 08:06:00;;;;;;;6.22;4.70;;;;;;;;;;1500609;39;20393;-61
2021/06/29 08:07:15;;;;;;;7.57;4.70;;;;;;;;;;1496402;31;20379;-60
2021/06/29 08:08:30;;;;;;;6.40;4.32;;;;;;;;;;1500619;31;20374;-60
2021/06/29 08:09:45;;;;;;;6.53;4.82;;;;;;;;;;1500581;39;20384;-62
2021/06/29 08:11:02;;;;;;;4.65;3.85;;;;;;;;;;1496251;39;20390;-62
2021/06/29 08:12:17;;;;;;;8.63;4.40;;;;;;;;;;1492037;39;20645;-61
2021/06/29 08:13:32;;;;;;;9.10;4.88;;;;;;;;;;1492041;39;20387;-62
2021/06/29 08:14:46;;;;;;;6.68;4.70;;;;;;;;;;1500590;39;20389;-61
2021/06/29 08:16:02;;;;;;;5.00;4.07;;;;;;;;;;1509094;39;20379;-61
2021/06/29 08:17:17;;;;;;;7.10;4.68;;;;;;;;;;1492058;39;20389;-60
2021/06/29 08:18:31;;;;;;;6.53;4.60;;;;;;;;;;1509166;39;20386;-61
2021/06/29 08:19:47;;;;;;;5.68;4.38;;;;;;;;;;1492168;31;20380;-62
2021/06/29 08:21:02;;;;;;;5.18;4.68;;;;;;;;;;1509151;39;20386;-61
2021/06/29 08:22:16;;;;;;;5.95;4.13;;;;;;;;;;1496304;39;20758;-60
2021/06/29 08:23:32;;;;;;;7.75;4.60;;;;;;;;;;1500447;39;20392;-61
2021/06/29 08:24:47;;;;;;;6.65;4.50;;;;;;;;;;1492162;39;20376;-61
2021/06/29 08:26:01;;;;;;;6.20;4.60;;;;;;;;;;1509057;39;20383;-62
2021/06/29 08:27:16;;;;;;;6.63;4.32;;;;;;;;;;1500707;31;20761;-62
2021/06/29 08:28:17;;;;;;;6.47;4.88;;;;;;;;;;1500488;39;20026;-62
2021/06/29 08:29:32;;;;;;;5.10;4.38;;;;;;;;;;1508960;39;20397;-62
2021/06/29 08:30:50;;;;;;;7.28;4.40;;;;;;;;;;1496312;31;20383;-62
2021/06/29 08:32:06;;;;;;;8.55;4.70;;;;;;;;;;1496313;39;20363;-61
2021/06/29 08:33:22;;;;;;;7.07;4.50;;;;;;;;;;1492071;39;20392;-61
2021/06/29 08:34:35;;;;;;;7.80;4.78;;;;;;;;;;1500572;39;20382;-62
2021/06/29 08:35:52;;;;;;;7.80;4.38;;;;;;;;;;1504749;39;20388;-62
2021/06/29 08:37:05;;;;;;;5.63;4.35;;;;;;;;;;1509155;39;20383;-62
2021/06/29 08:38:21;;;;;;;8.98;4.50;;;;;;;;;;1496222;39;20383;-62
2021/06/29 08:39:36;;;;;;;4.57;4.10;;;;;;;;;;1496271;31;20386;-62
2021/06/29 08:40:50;;;;;;;7.82;4.57;;;;;;;;;;1496282;39;20379;-61
2021/06/29 08:42:06;;;;;;;5.18;4.40;;;;;;;;;;1508972;39;20386;-61
2021/06/29 08:43:21;;;;;;;6.63;4.35;;;;;;;;;;1492152;39;20377;-62
2021/06/29 08:44:36;;;;;;;5.75;4.15;;;;;;;;;;1500600;39;20393;-60
2021/06/29 08:45:51;;;;;;;5.55;4.18;;;;;;;;;;1509167;39;20684;-61
2021/06/29 08:47:07;;;;;;;8.80;4.40;;;;;;;;;;1504753;39;20779;-62
2021/06/29 08:48:22;;;;;;;5.70;4.32;;;;;;;;;;1500562;39;20384;-61
2021/06/29 08:49:37;;;;;;;5.03;3.88;;;;;;;;;;1496322;39;20386;-62
2021/06/29 08:50:52;;;;;;;4.65;3.70;;;;;;;;;;1500571;39;20380;-61
2021/06/29 08:51:57;;;;;;;4.95;3.67;;;;;;;;;;1500366;39;20019;-61
2021/06/29 08:53:15;;;;;;;5.85;4.00;;;;;;;;;;1492073;39;20376;-60
2021/06/29 08:54:30;;;;;;;5.40;4.10;;;;;;;;;;1500590;39;20370;-61
2021/06/29 08:55:47;;;;;;;4.78;3.90;;;;;;;;;;1509014;39;20654;-61